Latest Weather Observations for Melbourne Airport

IDV60901

Issued at 11:35 am EDT Wednesday 26 November 2014 (issued every 10 minutes, with the page automatically refreshed every 10 minutes)

About weather observations | Map of Melbourne area stations | Latest observations for Melbourne area | Other Formats
Station Details ID: 086282 Name: MELBOURNE AIRPORT Lat: -37.67 Lon: 144.83 Height: 113.4 m
Data from the previous 72 hours. | See also: Recent months at Melbourne Airport
Date/Time
EDT
Tmp

°C
App
Tmp
°C
Dew
Point
°C
Rel
Hum
%
Delta-T

°C
Wind Press
QNH
hPa
Press
MSL
hPa
Rain
since
9 am
mm
Dir
 
Spd
km/h
Gust
km/h
Spd
kts
Gust
kts
26/11:30am 15.9 12.9 7.7 58 4.1 WSW 13 19 7 10 1021.9 1021.7 0.0
26/11:00am 15.9 12.1 7.5 57 4.2 SSW 17 28 9 15 1022.0 1021.8 0.0
26/10:30am 15.4 10.9 7.1 57 4.1 SSW 20 28 11 15 1022.1 1021.9 0.0
26/10:00am 15.0 11.1 7.3 60 3.8 WSW 17 22 9 12 1022.0 1021.8 0.0
26/09:30am 14.2 9.9 7.0 62 3.5 WSW 19 30 10 16 1022.2 1022.0 0.0
26/09:00am 13.7 10.5 6.7 62 3.4 WSW 13 20 7 11 1022.1 1021.9 0.0
26/08:30am 12.8 9.6 6.8 67 2.9 W 13 19 7 10 1022.0 1021.8 0.0
26/08:00am 12.2 8.6 6.8 69 2.6 W 15 17 8 9 1021.6 1021.4 0.0
26/07:30am 11.2 7.7 7.2 76 1.9 W 15 19 8 10 1021.5 1021.3 0.0
26/07:00am 10.1 7.4 7.2 82 1.4 W 11 13 6 7 1021.2 1021.0 0.0
26/06:30am 9.6 6.3 6.6 81 1.4 WNW 13 15 7 8 1021.1 1020.9 0.0
26/06:00am 9.6 6.3 6.4 80 1.5 WNW 13 15 7 8 1020.8 1020.6 0.0
26/05:30am 9.4 6.1 6.4 81 1.4 NW 13 15 7 8 1020.6 1020.4 0.0
26/05:00am 9.6 6.2 6.1 79 1.6 NW 13 15 7 8 1020.4 1020.2 0.0
26/04:30am 9.0 5.7 6.2 82 1.3 WNW 13 17 7 9 1020.4 1020.2 0.0
26/04:00am 8.7 5.3 5.9 82 1.3 WNW 13 17 7 9 1020.5 1020.3 0.0
26/03:30am 9.3 6.0 6.3 81 1.4 NW 13 15 7 8 1020.5 1020.3 0.0
26/03:00am 9.4 6.5 6.4 81 1.4 WNW 11 13 6 7 1020.5 1020.3 0.0
26/02:30am 9.7 7.1 6.0 78 1.7 WNW 9 9 5 5 1020.7 1020.5 0.0
26/02:00am 10.3 7.7 6.2 76 1.9 WNW 9 9 5 5 1020.9 1020.7 0.0
26/01:30am 10.5 7.9 6.2 75 2.0 W 9 9 5 5 1021.1 1020.9 0.0
26/01:00am 11.4 8.8 6.3 71 2.4 WSW 9 11 5 6 1021.4 1021.2 0.0
26/12:30am 13.0 9.7 6.3 64 3.2 WSW 13 15 7 8 1021.6 1021.4 0.0
26/12:00am 13.4 10.4 6.0 61 3.5 SW 11 13 6 7 1021.9 1021.7 0.0
 
Date/Time
EDT
Tmp

°C
App
Tmp
°C
Dew
Point
°C
Rel
Hum
%
Delta-T

°C
Wind Press
QNH
hPa
Press
MSL
hPa
Rain
since
9 am
mm
Dir
 
Spd
km/h
Gust
km/h
Spd
kts
Gust
kts
25/11:30pm 13.5 10.6 6.4 62 3.4 SSW 11 13 6 7 1022.0 1021.8 0.0
25/11:00pm 13.7 10.0 6.2 60 3.6 SW 15 22 8 12 1022.2 1022.0 0.0
25/10:30pm 14.0 9.4 6.3 60 3.7 SSW 20 30 11 16 1022.1 1021.9 0.0
25/10:00pm 14.5 10.1 6.4 58 3.9 SW 19 28 10 15 1021.8 1021.6 0.0
25/09:30pm 14.6 11.8 8.5 67 3.1 SSW 13 17 7 9 1021.4 1021.2 0.0
25/09:00pm 14.6 10.6 9.1 69 2.8 SSE 20 28 11 15 1021.0 1020.8 0.0
25/08:30pm 14.6 10.2 9.1 69 2.8 SE 22 30 12 16 1020.7 1020.5 0.0
25/08:00pm 15.2 10.6 9.6 69 2.9 SE 24 30 13 16 1020.4 1020.2 0.0
25/07:30pm 15.6 11.4 9.9 69 3.0 SSE 22 28 12 15 1020.1 1019.9 0.0
25/07:00pm 16.7 11.9 8.7 59 4.1 SSE 24 33 13 18 1019.6 1019.4 0.0
25/06:30pm 17.2 12.0 8.7 57 4.4 SSE 26 30 14 16 1019.1 1018.9 0.0
25/06:00pm 19.4 13.7 3.0 33 7.7 SW 22 35 12 19 1018.5 1018.3 0.0
25/05:30pm 20.6 14.4 2.4 30 8.5 WSW 24 37 13 20 1018.3 1018.1 0.0
25/05:00pm 19.7 12.7 2.2 31 8.1 WSW 28 39 15 21 1018.6 1018.4 0.0
25/04:30pm 19.9 14.0 1.8 30 8.3 WSW 22 32 12 17 1018.6 1018.4 0.0
25/04:00pm 20.0 14.2 2.4 31 8.2 W 22 30 12 16 1018.7 1018.5 0.0
25/03:30pm 20.7 13.8 2.3 29 8.6 SSW 28 39 15 21 1018.7 1018.5 0.0
25/03:03pm 20.7 13.8 2.3 29 8.6 WSW 28 46 15 25 1018.7 1018.5 0.0
25/03:00pm 19.7 12.2 1.5 29 8.3 W 30 46 16 25 1018.9 1018.7 0.0
25/02:30pm 20.4 13.9 2.7 31 8.3 W 26 37 14 20 1018.7 1018.5 0.0
25/02:00pm 19.6 12.2 2.0 31 8.1 W 30 41 16 22 1018.9 1018.7 0.0
25/01:30pm 18.5 12.2 3.6 37 7.0 WSW 26 41 14 22 1018.9 1018.7 0.0
25/01:00pm 19.7 12.8 2.8 32 7.9 W 28 41 15 22 1018.9 1018.7 0.0
25/12:30pm 18.4 13.4 3.5 37 7.0 WSW 19 35 10 19 1019.0 1018.8 0.0
25/12:00pm 18.6 11.8 3.2 36 7.2 WSW 28 35 15 19 1019.1 1018.9 0.0
25/11:30am 18.1 11.2 4.5 40 6.5 W 30 41 16 22 1019.3 1019.1 0.0
25/11:00am 16.2 9.7 4.5 45 5.5 W 28 35 15 19 1019.3 1019.1 0.0
25/10:30am 15.6 9.5 6.4 54 4.5 W 28 37 15 20 1019.3 1019.1 0.0
25/10:00am 15.9 9.4 6.3 53 4.7 WSW 30 37 16 20 1019.4 1019.2 0.0
25/09:30am 15.3 8.8 6.7 56 4.2 W 30 37 16 20 1019.1 1018.9 0.0
25/09:00am 14.2 8.6 7.0 62 3.5 WSW 26 33 14 18 1019.0 1018.8 4.6
25/08:30am 13.8 7.9 7.5 66 3.1 W 28 39 15 21 1018.6 1018.4 4.6
25/08:00am 13.0 8.7 7.7 70 2.6 W 20 26 11 14 1017.8 1017.7 4.6
25/07:30am 12.1 7.9 7.4 73 2.3 W 19 26 10 14 1017.6 1017.5 4.6
25/07:00am 11.0 7.2 7.5 79 1.7 WNW 17 26 9 14 1017.2 1017.1 4.6
25/06:30am 9.7 5.7 6.7 81 1.4 WNW 17 22 9 12 1016.6 1016.5 4.6
25/06:00am 8.8 5.1 6.2 84 1.2 WNW 15 19 8 10 1016.3 1016.2 4.6
25/05:30am 9.3 5.6 6.1 80 1.5 W 15 19 8 10 1015.7 1015.6 4.6
25/05:00am 8.9 5.9 6.1 82 1.3 WNW 11 19 6 10 1015.6 1015.5 4.6
25/04:30am 8.9 5.2 6.1 82 1.3 WNW 15 20 8 11 1015.2 1015.1 4.6
25/04:00am 8.6 4.5 6.4 86 1.0 WNW 17 20 9 11 1015.1 1014.9 4.6
25/03:30am 9.0 5.7 6.2 82 1.3 WNW 13 19 7 10 1015.1 1014.9 4.6
25/03:00am 8.9 5.6 6.5 85 1.1 WNW 13 17 7 9 1015.2 1015.1 4.6
25/02:30am 9.1 5.0 6.3 83 1.3 WNW 17 20 9 11 1015.1 1014.9 4.6
25/02:00am 9.8 6.9 6.4 79 1.6 NW 11 15 6 8 1015.0 1014.8 4.6
25/01:30am 10.2 6.6 6.8 79 1.6 NW 15 19 8 10 1014.9 1014.7 4.6
25/01:00am 10.1 6.9 6.7 79 1.6 NW 13 22 7 12 1014.8 1014.6 4.6
25/12:30am 10.0 6.9 7.1 82 1.4 WNW 13 17 7 9 1014.8 1014.6 4.6
25/12:00am 9.6 6.8 7.1 84 1.2 WNW 11 13 6 7 1014.6 1014.4 4.6
 
Date/Time
EDT
Tmp

°C
App
Tmp
°C
Dew
Point
°C
Rel
Hum
%
Delta-T

°C
Wind Press
QNH
hPa
Press
MSL
hPa
Rain
since
9 am
mm
Dir
 
Spd
km/h
Gust
km/h
Spd
kts
Gust
kts
24/11:30pm 10.7 8.1 7.6 81 1.5 W 11 13 6 7 1014.5 1014.3 4.6
24/11:00pm 11.2 8.3 8.1 81 1.5 WSW 13 17 7 9 1014.1 1013.9 4.6
24/10:30pm 11.9 8.9 9.1 83 1.4 W 15 17 8 9 1014.1 1013.9 4.6
24/10:00pm 11.4 9.2 9.4 87 1.0 W 11 13 6 7 1013.8 1013.6 4.6
24/09:30pm 13.2 9.4 9.7 79 1.8 WSW 20 26 11 14 1013.3 1013.1 4.6
24/09:00pm 13.6 10.3 9.7 77 2.0 WSW 17 24 9 13 1013.0 1012.8 4.6
24/08:30pm 13.8 10.1 9.5 75 2.2 SW 19 30 10 16 1012.5 1012.3 4.6
24/08:00pm 13.7 9.5 9.6 76 2.1 WSW 22 30 12 16 1011.9 1011.7 4.6
24/07:30pm 13.7 8.5 10.3 80 1.8 WSW 28 33 15 18 1011.5 1011.3 4.6
24/07:00pm 13.9 6.7 10.7 81 1.7 WSW 39 52 21 28 1010.8 1010.6 4.6
24/06:30pm 15.5 8.3 13.2 86 1.3 SW 43 61 23 33 1009.5 1009.3 4.6
24/06:00pm 17.5 15.3 13.3 76 2.4 SSW 17 28 9 15 1008.2 1008.1 4.6
24/05:30pm 18.0 13.4 13.4 74 2.6 SW 30 39 16 21 1007.6 1007.4 4.6
24/05:00pm 16.8 13.5 14.0 83 1.6 WSW 24 32 13 17 1007.2 1007.0 4.6
24/04:45pm 16.6 13.3 14.9 90 1.0 SW 26 33 14 18 1007.1 1006.9 4.6
24/04:30pm 16.4 12.4 15.2 93 0.7 SW 30 41 16 22 1007.0 1006.8 4.6
24/04:22pm 16.6 11.7 15.4 93 0.7 SW 35 41 19 22 1006.9 1006.7 4.6
24/04:17pm 17.9 17.7 16.7 93 0.7 SW 13 17 7 9 1006.7 1006.5 4.6
24/04:00pm 17.7 17.9 16.7 94 0.6 SSW 11 15 6 8 1006.8 1006.6 4.6
24/03:30pm 17.5 17.6 16.5 94 0.6 SSW 11 13 6 7 1007.1 1006.9 4.2
24/03:10pm 17.6 17.1 15.9 90 1.0 S 13 17 7 9 1006.6 1006.4 3.6
24/03:00pm 17.8 15.0 16.3 91 0.9 SW 26 37 14 20 1006.9 1006.7 3.6
24/02:30pm 19.5 18.4 17.2 86 1.4 SSW 19 30 10 16 1006.0 1005.8 3.4
24/02:00pm 18.7 19.0 16.9 89 1.1 SE 11 17 6 9 1005.9 1005.7 3.4
24/01:30pm 18.9 17.3 16.6 86 1.4 ENE 20 30 11 16 1005.7 1005.5 3.0
24/01:18pm 18.6 16.6 16.4 87 1.3 ENE 22 28 12 15 1006.3 1006.1 3.0
24/01:00pm 18.1 18.7 15.9 87 1.3 SSE 7 9 4 5 1008.4 1008.3 3.0
24/12:58pm 18.1 17.5 15.7 86 1.4 E 13 20 7 11 1008.4 1008.3 2.8
24/12:30pm 17.2 15.8 15.5 90 1.0 E 17 22 9 12 1007.9 1007.7 2.8
24/12:09pm 16.1 15.6 14.9 93 0.7 S 11 15 6 8 1009.9 1009.7 1.6
24/12:00pm 16.9 16.3 14.5 86 1.4 ESE 11 15 6 8 1009.6 1009.4 1.4
24/11:41am 15.8 15.1 14.4 91 0.8 S 11 15 6 8 1009.4 1009.2 0.8
24/11:30am 16.4 14.9 14.3 87 1.2 S 15 24 8 13 1009.7 1009.5 0.4
24/11:00am 16.7 15.8 13.7 82 1.7 SSE 11 17 6 9 1009.6 1009.4 0.4
24/10:30am 17.4 16.7 13.3 77 2.3 ESE 9 11 5 6 1009.3 1009.1 0.4
24/10:00am 16.0 14.8 12.8 81 1.8 SSE 11 17 6 9 1010.1 1009.9 0.4
24/09:30am 17.1 14.2 12.8 76 2.4 SW 20 26 11 14 1010.2 1010.0 0.0
24/09:00am 20.0 18.7 11.3 57 4.8 WSW 9 15 5 8 1009.7 1009.5 0.0
24/08:30am 18.7 12.5 10.2 57 4.6 W 33 52 18 28 1009.6 1009.4 0.0
24/08:26am 19.1 10.9 9.8 55 5.0 WSW 43 52 23 28 1009.7 1009.5 0.0
24/08:23am 21.7 16.4 9.7 46 6.5 WNW 28 37 15 20 1009.7 1009.5 0.0
24/08:21am 21.7 12.9 9.5 45 6.6 N 46 59 25 32 1008.9 1008.8 0.0
24/08:00am 22.7 13.3 7.2 36 8.1 N 46 63 25 34 1006.8 1006.6 0.0
24/07:35am 21.9 14.8 8.1 41 7.3 N 35 54 19 29 1007.0 1006.8 0.0
24/07:30am 21.6 15.0 8.4 42 7.0 N 33 46 18 25 1007.2 1007.0 0.0
24/07:24am 21.4 15.8 8.9 44 6.7 N 28 46 15 25 1007.2 1007.0 0.0
24/07:19am 19.9 16.1 9.9 52 5.4 N 20 32 11 17 1007.3 1007.1 0.0
24/07:00am 14.8 14.0 11.7 82 1.7 SSW 7 9 4 5 1007.7 1007.5 0.0
24/06:30am 14.3 12.1 10.9 80 1.8 N 13 17 7 9 1008.0 1007.9 0.0
24/06:00am 13.6 12.3 11.2 85 1.3 NW 9 15 5 8 1007.9 1007.7 0.0
24/05:30am 12.8 10.9 10.5 86 1.2 NNE 11 15 6 8 1008.7 1008.6 0.0
24/05:00am 12.3 12.0 10.2 87 1.1 WNW 2 6 1 3 1009.0 1008.9 0.0
24/04:30am 12.3 12.1 10.6 89 0.9 N 2 7 1 4 1008.7 1008.6 0.0
24/04:00am 12.8 11.5 9.9 82 1.5 N 7 9 4 5 1009.0 1008.9 0.0
24/03:30am 12.3 10.6 9.8 85 1.3 N 9 11 5 6 1009.5 1009.3 0.0
24/03:00am 13.0 11.4 10.1 82 1.5 N 9 11 5 6 1009.8 1009.6 0.0
24/02:30am 13.6 11.9 9.9 78 1.9 N 9 11 5 6 1010.8 1010.6 0.0
24/02:00am 13.0 11.7 9.9 81 1.6 NNW 7 9 4 5 1011.0 1010.8 0.0
24/01:30am 14.1 12.9 10.3 78 2.0 N 7 9 4 5 1011.2 1011.0 0.0
24/01:00am 14.3 12.8 10.5 78 2.0 NNE 9 11 5 6 1012.0 1011.8 0.0
24/12:30am 15.1 14.1 10.4 73 2.5 WNW 6 9 3 5 1012.6 1012.4 0.0
24/12:00am 15.0 13.9 10.7 75 2.3 WSW 7 11 4 6 1012.9 1012.7 0.0
 
Date/Time
EDT
Tmp

°C
App
Tmp
°C
Dew
Point
°C
Rel
Hum
%
Delta-T

°C
Wind Press
QNH
hPa
Press
MSL
hPa
Rain
since
9 am
mm
Dir
 
Spd
km/h
Gust
km/h
Spd
kts
Gust
kts
23/11:30pm 15.5 14.5 10.4 71 2.7 SW 6 7 3 4 1013.2 1013.0 0.0
23/11:00pm 15.6 14.1 10.7 72 2.6 W 9 11 5 6 1013.8 1013.6 0.0
23/10:30pm 16.3 14.1 10.7 69 3.0 W 13 15 7 8 1014.2 1014.0 0.0
23/10:00pm 16.5 14.8 11.3 71 2.8 W 11 15 6 8 1014.0 1013.8 0.0
23/09:30pm 17.2 15.4 10.9 66 3.4 W 11 13 6 7 1013.5 1013.3 0.0
23/09:00pm 16.6 15.4 11.7 73 2.7 W 9 9 5 5 1013.3 1013.1 0.0
23/08:30pm 17.0 15.7 11.1 68 3.2 SW 9 11 5 6 1013.5 1013.3 0.0
23/08:00pm 17.5 16.1 10.8 65 3.6 SSW 9 13 5 7 1013.3 1013.1 0.0
23/07:30pm 17.8 15.2 10.8 63 3.8 SSW 15 19 8 10 1013.1 1012.9 0.0
23/07:00pm 18.4 15.6 11.3 63 3.9 S 17 20 9 11 1013.3 1013.1 0.0
23/06:30pm 19.4 16.0 11.2 59 4.5 S 20 26 11 14 1012.9 1012.7 0.0
23/06:00pm 20.2 16.8 11.1 56 5.0 S 20 26 11 14 1012.6 1012.4 0.0
23/05:30pm 21.1 17.0 11.6 54 5.3 S 24 30 13 16 1012.3 1012.1 0.0
23/05:00pm 21.6 16.7 11.4 52 5.7 S 28 35 15 19 1011.9 1011.7 0.0
23/04:30pm 23.0 18.1 11.2 47 6.6 S 28 33 15 18 1011.6 1011.4 0.0
23/04:00pm 22.9 17.6 11.3 48 6.5 S 30 35 16 19 1011.3 1011.1 0.0
23/03:30pm 23.6 19.3 12.0 48 6.6 S 26 33 14 18 1010.7 1010.5 0.0
23/03:00pm 24.5 21.2 12.8 48 6.8 S 22 33 12 18 1010.6 1010.4 0.0
23/02:30pm 25.3 22.7 13.2 47 7.1 SSE 19 28 10 15 1010.4 1010.2 0.0
23/02:00pm 24.1 21.3 12.7 49 6.6 SSW 19 30 10 16 1010.6 1010.4 0.0
23/01:30pm 23.2 20.7 13.4 54 5.7 S 19 28 10 15 1010.7 1010.5 0.0
23/01:00pm 23.7 21.2 13.6 53 5.9 SSE 19 28 10 15 1010.9 1010.7 0.0
23/12:30pm 23.2 21.7 13.2 53 5.8 SSE 13 20 7 11 1011.2 1011.0 0.0
23/12:00pm 23.5 21.7 13.4 53 5.9 SSE 15 22 8 12 1011.4 1011.2 0.0

Latest Capital City Observations: Canberra | Sydney | Melbourne | Brisbane | Adelaide | Perth | Hobart | Darwin

Other Formats:

Comma delimited format used in spreadsheet applications
http://www.bom.gov.au/fwo/IDV60901/IDV60901.94866.axf

JavaScript Object Notation format (JSON) in row-major order
http://www.bom.gov.au/fwo/IDV60901/IDV60901.94866.json